createdAt,value
2019-02-05T00:02:06.261Z,38.23
2019-02-05T00:04:38.200Z,40.67
2019-02-05T00:07:11.607Z,39.13
2019-02-05T00:09:43.984Z,41.40
2019-02-05T00:12:16.518Z,46.13
2019-02-05T00:14:48.633Z,48.87
2019-02-05T00:17:20.687Z,45.70
2019-02-05T00:19:52.921Z,52.13
2019-02-05T00:22:25.125Z,49.80
2019-02-05T00:24:57.625Z,60.17
2019-02-05T00:27:29.751Z,53.67
2019-02-05T00:30:01.866Z,53.83
2019-02-05T00:32:38.141Z,53.33
2019-02-05T00:35:10.312Z,56.30
2019-02-05T00:37:42.132Z,60.90
2019-02-05T00:40:18.228Z,57.13
2019-02-05T00:42:50.429Z,56.33
2019-02-05T00:45:22.416Z,57.03
2019-02-05T00:47:54.189Z,59.07
2019-02-05T00:50:26.112Z,57.00
2019-02-05T00:52:59.868Z,61.53
2019-02-05T00:55:32.566Z,62.00
2019-02-05T00:58:06.868Z,63.60
2019-02-05T01:00:38.645Z,61.10
2019-02-05T01:03:10.568Z,65.50
2019-02-05T01:05:42.612Z,65.53
2019-02-05T01:08:15.257Z,66.50
2019-02-05T01:10:47.203Z,67.20
2019-02-05T01:13:18.901Z,79.27
2019-02-05T01:15:50.623Z,68.33
2019-02-05T01:18:25.610Z,66.70
2019-02-05T01:20:59.354Z,74.43
2019-02-05T01:23:31.102Z,72.80
2019-02-05T01:26:03.112Z,67.33
2019-02-05T01:28:34.736Z,69.40
2019-02-05T01:31:06.806Z,67.50
2019-02-05T01:33:38.712Z,67.67
2019-02-05T01:36:10.988Z,35.90
2019-02-05T01:38:53.329Z,32.47
2019-02-05T01:41:25.179Z,34.83
2019-02-05T01:43:57.212Z,24.50
2019-02-05T01:46:28.892Z,14.80
2019-02-05T01:49:00.589Z,9.00
2019-02-05T01:51:32.262Z,8.37
2019-02-05T01:54:04.493Z,6.93
2019-02-05T01:56:40.711Z,8.30
2019-02-05T01:59:10.465Z,9.03
2019-02-05T02:01:51.763Z,12.77
2019-02-05T02:04:25.638Z,10.87
2019-02-05T02:06:57.493Z,9.50
2019-02-05T02:09:29.099Z,9.13
2019-02-05T02:12:00.861Z,10.60
2019-02-05T02:14:32.491Z,10.00
2019-02-05T02:17:06.215Z,12.97
2019-02-05T02:19:38.145Z,13.97
2019-02-05T02:22:10.341Z,16.53
2019-02-05T02:28:28.717Z,17.70
2019-02-05T02:31:01.391Z,19.80
2019-02-05T02:33:33.294Z,14.60
2019-02-05T02:36:05.913Z,13.50
2019-02-05T02:38:39.210Z,16.40
2019-02-05T02:41:11.092Z,17.63
2019-02-05T02:43:42.923Z,17.17
2019-02-05T02:46:14.750Z,15.47
2019-02-05T02:48:46.734Z,10.63
2019-02-05T02:51:19.024Z,10.50
2019-02-05T02:53:51.492Z,10.40
2019-02-05T02:56:23.453Z,10.47
2019-02-05T02:58:55.809Z,9.47
2019-02-05T03:01:29.076Z,10.60
2019-02-05T03:04:00.748Z,9.60
2019-02-05T03:06:32.426Z,9.70
2019-02-05T03:09:05.441Z,8.07
2019-02-05T03:11:37.637Z,8.20
2019-02-05T03:14:09.625Z,7.80
2019-02-05T03:16:41.296Z,8.00
2019-02-05T03:19:13.190Z,9.20
2019-02-05T03:21:45.756Z,9.30
2019-02-05T03:24:17.706Z,8.57
2019-02-05T03:26:49.546Z,9.47
2019-02-05T03:29:22.905Z,10.53
2019-02-05T03:31:54.941Z,9.20
2019-02-05T03:34:26.604Z,11.17
2019-02-05T03:36:58.484Z,10.97
2019-02-05T03:39:32.787Z,10.70
2019-02-05T03:42:04.581Z,10.50
2019-02-05T03:44:36.558Z,11.60
2019-02-05T03:47:08.244Z,11.20
2019-02-05T03:49:40.668Z,10.50
2019-02-05T03:52:14.601Z,9.47
2019-02-05T03:54:49.417Z,9.20
2019-02-05T03:57:30.915Z,10.10
2019-02-05T04:00:29.609Z,9.30
2019-02-05T04:03:24.132Z,7.30
2019-02-05T04:05:58.360Z,8.40
2019-02-05T04:08:41.970Z,8.83
2019-02-05T04:11:22.317Z,8.50
2019-02-05T04:14:08.712Z,8.37
2019-02-05T04:17:13.502Z,8.40
2019-02-05T04:19:51.854Z,8.60
2019-02-05T04:22:44.216Z,7.73
2019-02-05T04:25:33.921Z,7.57
2019-02-05T04:28:14.389Z,7.43
2019-02-05T04:30:55.196Z,6.90
2019-02-05T04:33:29.471Z,7.03
2019-02-05T04:36:12.851Z,6.97
2019-02-05T04:39:08.618Z,7.87
2019-02-05T04:42:13.293Z,7.80
2019-02-05T04:45:08.713Z,8.47
2019-02-05T04:48:05.458Z,9.13
2019-02-05T04:51:06.710Z,9.47
2019-02-05T04:53:49.691Z,9.27
2019-02-05T04:56:27.196Z,8.33
2019-02-05T04:59:19.268Z,8.57
2019-02-05T05:01:56.509Z,7.87
2019-02-05T05:04:45.465Z,6.87
2019-02-05T05:07:25.448Z,11.20
2019-02-05T05:09:59.085Z,14.23
2019-02-05T05:12:31.130Z,10.80
2019-02-05T05:15:02.892Z,8.73
2019-02-05T05:17:34.507Z,9.27
2019-02-05T05:20:09.120Z,8.37
2019-02-05T05:25:54.725Z,7.00
2019-02-05T05:28:27.067Z,6.63
2019-02-05T05:30:59.380Z,7.17
2019-02-05T05:33:31.005Z,7.13
2019-02-05T05:36:02.714Z,7.73
2019-02-05T05:38:34.465Z,7.47
2019-02-05T05:41:06.562Z,8.43
2019-02-05T05:43:38.723Z,10.23
2019-02-05T05:46:10.390Z,9.70
2019-02-05T05:48:42.389Z,10.17
2019-02-05T05:51:14.054Z,8.80
2019-02-05T05:53:45.762Z,8.03
2019-02-05T05:56:18.556Z,7.83
2019-02-05T05:58:50.264Z,8.70
2019-02-05T06:01:23.140Z,8.33
2019-02-05T06:03:55.497Z,8.33
2019-02-05T06:06:27.467Z,9.37
2019-02-05T06:08:59.936Z,10.87
2019-02-05T06:11:31.712Z,11.67
2019-02-05T06:14:03.380Z,13.97
2019-02-05T06:16:35.677Z,13.33
2019-02-05T06:19:07.322Z,14.23
2019-02-05T06:21:39.354Z,14.83
2019-02-05T06:24:11.266Z,13.27
2019-02-05T06:26:43.294Z,11.37
2019-02-05T06:29:16.181Z,10.47
2019-02-05T06:31:48.825Z,10.67
2019-02-05T06:34:23.850Z,10.13
2019-02-05T06:36:55.976Z,10.17
2019-02-05T06:39:28.101Z,10.63
2019-02-05T06:41:59.873Z,10.90
2019-02-05T06:44:33.266Z,9.50
2019-02-05T06:47:08.709Z,8.03
2019-02-05T06:49:40.626Z,10.50
2019-02-05T06:52:12.893Z,11.33
2019-02-05T06:54:44.619Z,11.53
2019-02-05T06:57:22.171Z,10.57
2019-02-05T06:59:59.468Z,9.60
2019-02-05T07:02:35.586Z,7.70
2019-02-05T07:05:12.314Z,8.03
2019-02-05T07:07:49.662Z,7.83
2019-02-05T07:10:27.559Z,6.93
2019-02-05T07:13:03.103Z,8.50
2019-02-05T07:15:38.418Z,8.43
2019-02-05T07:18:13.874Z,8.20
2019-02-05T07:20:46.502Z,11.57
2019-02-05T07:23:19.257Z,11.80
2019-02-05T07:25:51.224Z,13.37
2019-02-05T07:28:22.895Z,13.73
2019-02-05T07:30:54.600Z,13.77
2019-02-05T07:33:26.792Z,14.67
2019-02-05T07:35:59.239Z,14.93
2019-02-05T07:38:31.004Z,14.40
2019-02-05T07:41:03.073Z,16.00
2019-02-05T07:43:35.461Z,16.00
2019-02-05T07:46:07.518Z,17.00
2019-02-05T07:48:39.768Z,16.57
2019-02-05T07:51:11.859Z,15.90
2019-02-05T07:53:43.606Z,16.30
2019-02-05T07:56:15.569Z,15.00
2019-02-05T07:58:47.301Z,15.57
2019-02-05T08:01:19.509Z,16.00
2019-02-05T08:03:51.235Z,16.43
2019-02-05T08:06:22.798Z,16.20
2019-02-05T08:08:54.877Z,15.97
2019-02-05T08:11:26.858Z,15.23
2019-02-05T08:13:58.637Z,15.57
2019-02-05T08:16:30.215Z,16.73
2019-02-05T08:19:01.799Z,15.57
2019-02-05T08:21:33.366Z,14.73
2019-02-05T08:24:05.779Z,15.13
2019-02-05T08:26:37.480Z,14.53
2019-02-05T08:29:20.997Z,14.37
2019-02-05T08:31:42.428Z,13.60
2019-02-05T08:34:14.054Z,13.93
2019-02-05T08:36:45.855Z,13.40
2019-02-05T08:39:18.023Z,13.27
2019-02-05T08:41:49.892Z,14.50
2019-02-05T08:44:23.202Z,13.97
2019-02-05T08:46:54.809Z,14.43
2019-02-05T08:49:26.359Z,13.33
2019-02-05T08:51:58.031Z,13.27
2019-02-05T08:54:30.185Z,11.97
2019-02-05T08:57:02.432Z,13.53
2019-02-05T08:59:33.998Z,13.13
2019-02-05T09:02:05.911Z,11.67
2019-02-05T09:04:37.593Z,11.07
2019-02-05T09:07:09.230Z,13.43
2019-02-05T09:09:40.886Z,11.43
2019-02-05T09:12:12.596Z,12.20
2019-02-05T09:14:45.636Z,10.10
2019-02-05T09:17:17.248Z,10.87
2019-02-05T09:19:48.908Z,10.77
2019-02-05T09:22:20.835Z,10.83
2019-02-05T09:24:52.571Z,12.27
2019-02-05T09:27:24.387Z,12.07
2019-02-05T09:29:56.024Z,12.83
2019-02-05T09:32:34.793Z,14.20
2019-02-05T09:35:00.917Z,15.50
2019-02-05T09:37:32.832Z,12.33
2019-02-05T09:40:04.613Z,11.90
2019-02-05T09:42:36.317Z,11.77
2019-02-05T09:45:10.890Z,11.57
2019-02-05T09:47:43.013Z,13.17
2019-02-05T09:50:17.307Z,12.97
2019-02-05T09:52:49.261Z,12.60
2019-02-05T09:55:22.046Z,10.70
2019-02-05T09:57:54.007Z,11.10
2019-02-05T10:00:39.752Z,12.10
2019-02-05T10:03:11.441Z,12.00
2019-02-05T10:05:43.458Z,14.63
2019-02-05T10:08:15.051Z,15.57
2019-02-05T10:10:46.743Z,13.10
2019-02-05T10:13:19.011Z,14.80
2019-02-05T10:15:51.088Z,12.63
2019-02-05T10:18:22.728Z,14.63
2019-02-05T10:20:59.210Z,14.73
2019-02-05T10:23:31.495Z,14.83
2019-02-05T10:26:03.491Z,12.57
2019-02-05T10:28:35.167Z,11.30
2019-02-05T10:31:06.735Z,13.03
2019-02-05T10:33:38.390Z,13.73
2019-02-05T10:36:10.159Z,13.17
2019-02-05T10:38:41.787Z,14.23
2019-02-05T10:41:13.738Z,14.87
2019-02-05T10:43:45.609Z,14.60
2019-02-05T10:46:17.289Z,13.57
2019-02-05T10:48:48.868Z,14.13
2019-02-05T10:51:20.486Z,15.23
2019-02-05T10:53:52.793Z,14.03
2019-02-05T10:56:24.433Z,13.33
2019-02-05T10:58:56.738Z,13.97
2019-02-05T11:01:29.039Z,21.63
2019-02-05T11:04:00.991Z,29.80
2019-02-05T11:06:32.769Z,21.17
2019-02-05T11:09:06.092Z,19.13
2019-02-05T11:11:37.747Z,17.63
2019-02-05T11:14:09.867Z,18.20
2019-02-05T11:16:41.464Z,18.60
2019-02-05T11:19:13.148Z,15.97
2019-02-05T11:21:44.952Z,12.43
2019-02-05T11:24:17.303Z,13.20
2019-02-05T11:26:48.941Z,12.93
2019-02-05T11:29:20.593Z,12.53
2019-02-05T11:31:52.290Z,12.50
2019-02-05T11:34:24.640Z,12.43
2019-02-05T11:36:56.844Z,13.20
2019-02-05T11:39:28.840Z,11.63
2019-02-05T11:42:00.472Z,11.77
2019-02-05T11:44:32.176Z,11.97
2019-02-05T11:47:04.045Z,16.80
2019-02-05T11:49:35.981Z,15.30
2019-02-05T11:52:09.742Z,19.03
2019-02-05T11:54:40.888Z,16.57
2019-02-05T11:57:12.597Z,14.67
2019-02-05T11:59:45.436Z,14.17
2019-02-05T12:02:17.438Z,16.57
2019-02-05T12:04:49.055Z,17.80
2019-02-05T12:07:20.673Z,15.63
2019-02-05T12:09:52.395Z,21.83
2019-02-05T12:12:24.035Z,31.87
2019-02-05T12:14:56.190Z,32.17
2019-02-05T12:17:27.812Z,37.63
2019-02-05T12:19:59.718Z,28.77
2019-02-05T12:22:31.399Z,25.23
2019-02-05T12:25:03.044Z,26.73
2019-02-05T12:27:34.729Z,23.83
2019-02-05T12:30:09.443Z,20.10
2019-02-05T12:32:41.150Z,21.47
2019-02-05T12:35:13.406Z,21.67
2019-02-05T12:37:45.450Z,22.40
2019-02-05T12:40:20.444Z,24.70
2019-02-05T12:42:52.432Z,22.50
2019-02-05T12:45:35.821Z,21.57
2019-02-05T12:51:21.447Z,21.00
2019-02-05T12:53:54.325Z,17.97
2019-02-05T12:56:30.424Z,17.13
2019-02-05T12:59:04.753Z,15.33
2019-02-05T13:01:37.734Z,18.33
2019-02-05T13:04:11.817Z,22.90
2019-02-05T13:06:44.994Z,17.97
2019-02-05T13:09:20.326Z,15.60
2019-02-05T13:11:59.977Z,16.70
2019-02-05T13:14:33.311Z,15.23
2019-02-05T13:17:05.996Z,16.37
2019-02-05T13:19:38.441Z,16.00
2019-02-05T13:22:13.391Z,15.23
2019-02-05T13:24:46.217Z,14.13
2019-02-05T13:27:20.954Z,14.90
2019-02-05T13:29:52.983Z,15.47
2019-02-05T13:32:25.902Z,15.63
2019-02-05T13:34:58.200Z,13.40
2019-02-05T13:37:29.997Z,13.70
2019-02-05T13:40:01.615Z,12.53
2019-02-05T13:42:33.454Z,16.43
2019-02-05T13:45:06.372Z,14.90
2019-02-05T13:47:38.706Z,13.53
2019-02-05T13:50:15.892Z,13.20
2019-02-05T13:52:48.179Z,12.63
2019-02-05T13:55:22.632Z,15.00
2019-02-05T13:57:54.378Z,12.73
2019-02-05T14:00:49.606Z,11.77
2019-02-05T14:03:21.298Z,11.70
2019-02-05T14:05:52.960Z,12.90
2019-02-05T14:08:24.889Z,13.00
2019-02-05T14:10:56.907Z,14.20
2019-02-05T14:13:30.243Z,13.67
2019-02-05T14:16:01.967Z,15.03
2019-02-05T14:18:33.709Z,14.10
2019-02-05T14:21:05.429Z,12.00
2019-02-05T14:23:37.435Z,13.27
2019-02-05T14:26:09.156Z,11.13
2019-02-05T14:28:40.889Z,12.00
2019-02-05T14:31:12.563Z,12.03
2019-02-05T14:33:44.305Z,11.20
2019-02-05T14:36:16.021Z,13.30
2019-02-05T14:38:48.035Z,10.60
2019-02-05T14:41:19.783Z,10.60
2019-02-05T14:43:51.464Z,9.60
2019-02-05T14:46:23.188Z,9.47
2019-02-05T14:48:54.865Z,10.63
2019-02-05T14:51:26.628Z,9.77
2019-02-05T14:53:58.814Z,9.10
2019-02-05T14:56:30.482Z,9.10
2019-02-05T14:59:02.219Z,10.27
2019-02-05T15:01:42.768Z,9.80
2019-02-05T15:04:07.507Z,9.53
2019-02-05T15:06:39.163Z,10.53
2019-02-05T15:09:12.413Z,9.43
2019-02-05T15:11:44.939Z,8.67
2019-02-05T15:14:17.380Z,9.00
2019-02-05T15:16:50.103Z,20.77
2019-02-05T15:19:21.859Z,10.70
2019-02-05T15:21:54.360Z,10.17
2019-02-05T15:24:37.191Z,9.57
2019-02-05T15:27:00.459Z,11.48
2019-02-05T15:29:32.207Z,9.80
2019-02-05T15:32:04.325Z,8.27
2019-02-05T15:34:36.177Z,8.87
2019-02-05T15:37:08.211Z,9.07
2019-02-05T15:40:09.213Z,8.63
2019-02-05T15:42:40.966Z,8.13
2019-02-05T15:45:14.857Z,9.30
2019-02-05T15:47:46.546Z,8.63
2019-02-05T15:50:18.411Z,9.17
2019-02-05T15:52:50.083Z,10.10
2019-02-05T15:55:22.023Z,9.30
2019-02-05T15:57:53.824Z,7.80
2019-02-05T16:00:28.571Z,8.23
2019-02-05T16:03:00.544Z,9.07
2019-02-05T16:05:32.343Z,8.50
2019-02-05T16:08:04.229Z,8.70
2019-02-05T16:10:36.238Z,8.40
2019-02-05T16:13:08.073Z,9.53
2019-02-05T16:15:40.207Z,8.47
2019-02-05T16:18:12.135Z,9.60
2019-02-05T16:20:46.136Z,8.55
2019-02-05T16:23:20.261Z,10.73
2019-02-05T16:25:51.991Z,7.60
2019-02-05T16:28:25.516Z,8.60
2019-02-05T16:30:59.577Z,8.57
2019-02-05T16:33:31.458Z,9.70
2019-02-05T16:36:04.367Z,9.58
2019-02-05T16:38:36.053Z,8.48
2019-02-05T16:41:07.921Z,11.93
2019-02-05T16:43:39.658Z,11.22
2019-02-05T16:46:11.360Z,9.48
2019-02-05T16:48:44.059Z,9.23
2019-02-05T16:51:15.955Z,9.50
2019-02-05T16:53:47.954Z,8.95
2019-02-05T16:56:19.733Z,9.50
2019-02-05T16:58:51.537Z,8.55
2019-02-05T17:01:23.569Z,8.45
2019-02-05T17:03:55.377Z,7.67
2019-02-05T17:06:28.245Z,8.38
2019-02-05T17:08:59.860Z,7.03
2019-02-05T17:11:32.170Z,7.58
2019-02-05T17:14:04.029Z,7.60
2019-02-05T17:16:35.668Z,7.97
2019-02-05T17:19:12.525Z,7.90
2019-02-05T17:21:45.287Z,7.50
2019-02-05T17:24:17.480Z,7.97
2019-02-05T17:26:49.858Z,6.90
2019-02-05T17:29:21.459Z,7.03
2019-02-05T17:31:53.192Z,6.55
2019-02-05T17:34:25.192Z,7.72
2019-02-05T17:36:57.397Z,7.22
2019-02-05T17:39:29.159Z,6.95
2019-02-05T17:42:00.771Z,6.75
2019-02-05T17:44:32.658Z,7.05
2019-02-05T17:47:04.476Z,8.03
2019-02-05T17:49:36.891Z,8.00
2019-02-05T17:52:12.666Z,6.72
2019-02-05T17:54:45.030Z,6.78
2019-02-05T17:57:16.821Z,6.72
2019-02-05T17:59:48.347Z,6.05
2019-02-05T18:05:18.934Z,10.48
2019-02-05T18:07:53.746Z,8.15
2019-02-05T18:10:30.015Z,8.70
2019-02-05T18:13:02.083Z,9.50
2019-02-05T18:15:38.902Z,8.50
2019-02-05T18:18:11.185Z,6.55
2019-02-05T18:20:47.029Z,6.90
2019-02-05T18:23:19.657Z,5.47
2019-02-05T18:25:52.195Z,7.03
2019-02-05T18:28:25.005Z,6.80
2019-02-05T18:30:58.155Z,7.45
2019-02-05T18:33:32.005Z,7.78
2019-02-05T18:36:08.195Z,6.50
2019-02-05T18:38:40.901Z,7.37
2019-02-05T18:41:18.075Z,7.75
2019-02-05T18:43:52.946Z,8.60
2019-02-05T18:46:25.022Z,6.75
2019-02-05T18:49:04.591Z,6.30
2019-02-05T18:51:30.608Z,7.03
2019-02-05T18:54:02.846Z,6.33
2019-02-05T18:56:35.041Z,5.83
2019-02-05T18:59:07.610Z,6.10
2019-02-05T19:01:41.409Z,5.67
2019-02-05T19:04:14.326Z,5.75
2019-02-05T19:06:48.186Z,6.62
2019-02-05T19:09:21.577Z,7.03
2019-02-05T19:11:53.775Z,6.85
2019-02-05T19:14:26.116Z,7.20
2019-02-05T19:16:58.644Z,6.83
2019-02-05T19:19:30.756Z,6.40
2019-02-05T19:22:03.603Z,6.47
2019-02-05T19:24:40.128Z,6.00
2019-02-05T19:27:12.335Z,6.28
2019-02-05T19:29:46.068Z,7.08
2019-02-05T19:32:19.694Z,19.82
2019-02-05T19:34:51.711Z,6.87
2019-02-05T19:37:23.719Z,6.42
2019-02-05T19:39:56.181Z,6.45
2019-02-05T19:42:28.717Z,5.67
2019-02-05T19:45:03.163Z,6.85
2019-02-05T19:47:35.731Z,5.40
2019-02-05T19:50:10.164Z,7.85
2019-02-05T19:52:43.217Z,6.12
2019-02-05T19:55:15.425Z,5.60
2019-02-05T19:57:47.998Z,6.72
2019-02-05T20:00:21.189Z,5.25
2019-02-05T20:02:55.464Z,6.20
2019-02-05T20:05:29.539Z,5.40
2019-02-05T20:08:01.394Z,5.40
2019-02-05T20:10:34.302Z,5.97
2019-02-05T20:13:07.455Z,5.65
2019-02-05T20:15:39.667Z,5.35
2019-02-05T20:18:11.911Z,5.75
2019-02-05T20:20:44.063Z,5.17
2019-02-05T20:23:16.027Z,6.10
2019-02-05T20:25:48.440Z,5.15
2019-02-05T20:28:20.681Z,5.62
2019-02-05T20:30:53.707Z,5.17
2019-02-05T20:33:27.446Z,5.72
2019-02-05T20:36:18.753Z,5.72
2019-02-05T20:38:51.520Z,6.00
2019-02-05T20:41:23.814Z,4.58
2019-02-05T20:43:55.951Z,5.58
2019-02-05T20:46:28.545Z,5.45
2019-02-05T20:49:00.514Z,5.00
2019-02-05T20:51:32.619Z,4.80
2019-02-05T20:54:04.805Z,6.30
2019-02-05T20:56:37.394Z,5.17
2019-02-05T20:59:09.770Z,5.28
2019-02-05T21:01:44.279Z,5.45
2019-02-05T21:04:16.558Z,5.55
2019-02-05T21:06:48.952Z,5.00
2019-02-05T21:09:21.565Z,5.08
2019-02-05T21:11:57.334Z,5.20
2019-02-05T21:14:29.614Z,5.55
2019-02-05T21:17:02.088Z,4.40
2019-02-05T21:19:36.062Z,4.90
2019-02-05T21:22:09.100Z,5.35
2019-02-05T21:24:41.354Z,6.03
2019-02-05T21:27:22.622Z,5.25
2019-02-05T21:29:54.591Z,5.20
2019-02-05T21:32:27.180Z,6.08
2019-02-05T21:34:59.956Z,5.00
2019-02-05T21:37:33.074Z,5.55
2019-02-05T21:40:06.702Z,6.35
2019-02-05T21:42:38.999Z,5.47
2019-02-05T21:45:16.884Z,5.42
2019-02-05T21:47:50.657Z,4.95
2019-02-05T21:50:26.171Z,5.45
2019-02-05T21:52:58.570Z,5.05
2019-02-05T21:55:31.626Z,5.85
2019-02-05T21:58:03.914Z,4.50
2019-02-05T22:00:39.636Z,6.00
2019-02-05T22:03:11.680Z,5.30
2019-02-05T22:05:44.587Z,6.22
2019-02-05T22:08:17.061Z,5.20
2019-02-05T22:10:49.105Z,5.85
2019-02-05T22:13:21.115Z,5.30
2019-02-05T22:15:53.232Z,5.55
2019-02-05T22:18:25.612Z,5.28
2019-02-05T22:20:57.794Z,4.78
2019-02-05T22:23:30.533Z,4.33
2019-02-05T22:26:02.619Z,5.35
2019-02-05T22:28:35.035Z,4.80
2019-02-05T22:31:07.689Z,5.22
2019-02-05T22:33:40.283Z,5.40
2019-02-05T22:36:12.603Z,5.47
2019-02-05T22:38:46.310Z,5.92
2019-02-05T22:41:19.430Z,7.17
2019-02-05T22:43:52.021Z,5.97
2019-02-05T22:46:24.735Z,5.87
2019-02-05T22:48:56.843Z,12.15
2019-02-05T22:51:29.089Z,6.28
2019-02-05T22:54:51.474Z,7.35
2019-02-05T22:57:24.217Z,5.55
2019-02-05T22:59:56.254Z,5.30
2019-02-05T23:02:28.454Z,6.08
2019-02-05T23:05:04.308Z,6.55
2019-02-05T23:07:36.778Z,6.42
2019-02-05T23:10:20.586Z,5.67
2019-02-05T23:12:52.921Z,5.35
2019-02-05T23:15:25.115Z,6.67
2019-02-05T23:17:57.581Z,5.50
2019-02-05T23:20:29.741Z,6.92
2019-02-05T23:23:02.365Z,7.30
2019-02-05T23:25:34.501Z,6.05
2019-02-05T23:28:07.309Z,5.92
2019-02-05T23:30:39.984Z,5.83
2019-02-05T23:33:12.799Z,5.90
2019-02-05T23:35:45.421Z,6.10
2019-02-05T23:38:18.102Z,6.75
2019-02-05T23:40:50.756Z,6.20
2019-02-05T23:43:22.965Z,6.13
2019-02-05T23:46:01.432Z,5.10
2019-02-05T23:48:28.863Z,7.10
2019-02-05T23:51:01.546Z,5.10
2019-02-05T23:53:33.921Z,6.50
2019-02-05T23:56:06.419Z,5.63
2019-02-05T23:58:38.741Z,5.30
